sensor_id;sensor_type;location;lat;lon;timestamp;P1;P2;P0
49914;PMS5003;35806;47.958;13.158;2023-04-24T00:01:35;10;8;
49914;PMS5003;35806;47.958;13.158;2023-04-24T00:04:02;8;8;
49914;PMS5003;35806;47.958;13.158;2023-04-24T00:06:30;6;5;
49914;PMS5003;35806;47.958;13.158;2023-04-24T00:08:58;6;6;
49914;PMS5003;35806;47.958;13.158;2023-04-24T00:11:25;8;6;
49914;PMS5003;35806;47.958;13.158;2023-04-24T00:13:53;7;7;
49914;PMS5003;35806;47.958;13.158;2023-04-24T00:16:20;11;10;
49914;PMS5003;35806;47.958;13.158;2023-04-24T00:18:48;8;7;
49914;PMS5003;35806;47.958;13.158;2023-04-24T00:21:15;6;6;
49914;PMS5003;35806;47.958;13.158;2023-04-24T00:23:42;9;7;
49914;PMS5003;35806;47.958;13.158;2023-04-24T00:26:10;6;5;
49914;PMS5003;35806;47.958;13.158;2023-04-24T00:28:38;6;5;
49914;PMS5003;35806;47.958;13.158;2023-04-24T00:31:05;4;4;
49914;PMS5003;35806;47.958;13.158;2023-04-24T00:33:33;7;6;
49914;PMS5003;35806;47.958;13.158;2023-04-24T00:36:00;7;6;
49914;PMS5003;35806;47.958;13.158;2023-04-24T00:38:28;5;5;
49914;PMS5003;35806;47.958;13.158;2023-04-24T00:40:56;4;4;
49914;PMS5003;35806;47.958;13.158;2023-04-24T00:43:23;6;6;
49914;PMS5003;35806;47.958;13.158;2023-04-24T00:45:51;4;4;
49914;PMS5003;35806;47.958;13.158;2023-04-24T00:48:18;3;2;
49914;PMS5003;35806;47.958;13.158;2023-04-24T00:50:47;5;4;
49914;PMS5003;35806;47.958;13.158;2023-04-24T00:53:15;4;4;
49914;PMS5003;35806;47.958;13.158;2023-04-24T00:55:42;4;4;
49914;PMS5003;35806;47.958;13.158;2023-04-24T00:58:15;3;3;
49914;PMS5003;35806;47.958;13.158;2023-04-24T01:15:30;3;3;
49914;PMS5003;35806;47.958;13.158;2023-04-24T01:18:03;2;2;
49914;PMS5003;35806;47.958;13.158;2023-04-24T01:20:31;3;3;
49914;PMS5003;35806;47.958;13.158;2023-04-24T01:23:00;2;2;
49914;PMS5003;35806;47.958;13.158;2023-04-24T01:25:28;2;2;
49914;PMS5003;35806;47.958;13.158;2023-04-24T01:27:56;3;2;
49914;PMS5003;35806;47.958;13.158;2023-04-24T01:30:24;2;2;
49914;PMS5003;35806;47.958;13.158;2023-04-24T01:32:51;3;2;
49914;PMS5003;35806;47.958;13.158;2023-04-24T01:35:19;2;2;
49914;PMS5003;35806;47.958;13.158;2023-04-24T01:37:47;2;2;
49914;PMS5003;35806;47.958;13.158;2023-04-24T01:40:14;4;3;
49914;PMS5003;35806;47.958;13.158;2023-04-24T01:42:42;2;2;
49914;PMS5003;35806;47.958;13.158;2023-04-24T01:45:10;2;2;
49914;PMS5003;35806;47.958;13.158;2023-04-24T01:47:38;2;1;
49914;PMS5003;35806;47.958;13.158;2023-04-24T01:50:06;2;2;
49914;PMS5003;35806;47.958;13.158;2023-04-24T01:52:34;0;0;
49914;PMS5003;35806;47.958;13.158;2023-04-24T01:55:02;1;1;
49914;PMS5003;35806;47.958;13.158;2023-04-24T01:57:29;2;2;
49914;PMS5003;35806;47.958;13.158;2023-04-24T01:59:57;1;1;
49914;PMS5003;35806;47.958;13.158;2023-04-24T02:02:24;2;2;
49914;PMS5003;35806;47.958;13.158;2023-04-24T02:04:52;1;1;
49914;PMS5003;35806;47.958;13.158;2023-04-24T02:07:20;2;2;
49914;PMS5003;35806;47.958;13.158;2023-04-24T02:09:47;1;1;
49914;PMS5003;35806;47.958;13.158;2023-04-24T02:12:15;2;2;
49914;PMS5003;35806;47.958;13.158;2023-04-24T02:14:42;1;1;
49914;PMS5003;35806;47.958;13.158;2023-04-24T02:17:10;3;3;
49914;PMS5003;35806;47.958;13.158;2023-04-24T02:19:38;1;1;
49914;PMS5003;35806;47.958;13.158;2023-04-24T02:22:05;2;2;
49914;PMS5003;35806;47.958;13.158;2023-04-24T02:24:33;1;1;
49914;PMS5003;35806;47.958;13.158;2023-04-24T02:27:00;1;1;
49914;PMS5003;35806;47.958;13.158;2023-04-24T02:29:28;1;1;
49914;PMS5003;35806;47.958;13.158;2023-04-24T02:31:56;0;0;
49914;PMS5003;35806;47.958;13.158;2023-04-24T02:34:23;2;2;
49914;PMS5003;35806;47.958;13.158;2023-04-24T02:36:51;2;2;
49914;PMS5003;35806;47.958;13.158;2023-04-24T02:39:18;1;1;
49914;PMS5003;35806;47.958;13.158;2023-04-24T02:41:46;2;2;
49914;PMS5003;35806;47.958;13.158;2023-04-24T02:44:13;0;0;
49914;PMS5003;35806;47.958;13.158;2023-04-24T02:46:41;2;2;
49914;PMS5003;35806;47.958;13.158;2023-04-24T02:49:09;1;1;
49914;PMS5003;35806;47.958;13.158;2023-04-24T02:51:36;1;1;
49914;PMS5003;35806;47.958;13.158;2023-04-24T02:54:03;1;1;
49914;PMS5003;35806;47.958;13.158;2023-04-24T02:56:31;0;0;
49914;PMS5003;35806;47.958;13.158;2023-04-24T02:56:32;0;0;
49914;PMS5003;35806;47.958;13.158;2023-04-24T02:59:00;0;0;
49914;PMS5003;35806;47.958;13.158;2023-04-24T03:01:27;1;1;
49914;PMS5003;35806;47.958;13.158;2023-04-24T03:03:55;1;1;
49914;PMS5003;35806;47.958;13.158;2023-04-24T03:06:22;1;1;
49914;PMS5003;35806;47.958;13.158;2023-04-24T03:08:49;1;0;
49914;PMS5003;35806;47.958;13.158;2023-04-24T03:11:17;1;1;
49914;PMS5003;35806;47.958;13.158;2023-04-24T03:13:45;1;1;
49914;PMS5003;35806;47.958;13.158;2023-04-24T03:16:12;0;0;
49914;PMS5003;35806;47.958;13.158;2023-04-24T03:18:39;1;1;
49914;PMS5003;35806;47.958;13.158;2023-04-24T03:21:06;0;0;
49914;PMS5003;35806;47.958;13.158;2023-04-24T03:23:34;2;2;
49914;PMS5003;35806;47.958;13.158;2023-04-24T03:26:02;0;0;
49914;PMS5003;35806;47.958;13.158;2023-04-24T03:28:29;2;1;
49914;PMS5003;35806;47.958;13.158;2023-04-24T03:30:57;1;1;
49914;PMS5003;35806;47.958;13.158;2023-04-24T03:33:24;2;2;
49914;PMS5003;35806;47.958;13.158;2023-04-24T03:35:51;2;1;
49914;PMS5003;35806;47.958;13.158;2023-04-24T03:38:19;2;1;
49914;PMS5003;35806;47.958;13.158;2023-04-24T03:40:46;1;1;
49914;PMS5003;35806;47.958;13.158;2023-04-24T03:43:14;2;2;
49914;PMS5003;35806;47.958;13.158;2023-04-24T03:45:42;4;2;
49914;PMS5003;35806;47.958;13.158;2023-04-24T03:48:09;2;2;
49914;PMS5003;35806;47.958;13.158;2023-04-24T03:50:42;3;3;
49914;PMS5003;35806;47.958;13.158;2023-04-24T03:53:09;2;2;
49914;PMS5003;35806;47.958;13.158;2023-04-24T03:55:36;4;3;
49914;PMS5003;35806;47.958;13.158;2023-04-24T03:58:04;3;3;
49914;PMS5003;35806;47.958;13.158;2023-04-24T04:00:32;3;3;
49914;PMS5003;35806;47.958;13.158;2023-04-24T04:02:59;2;2;
49914;PMS5003;35806;47.958;13.158;2023-04-24T04:05:27;3;3;
49914;PMS5003;35806;47.958;13.158;2023-04-24T04:07:54;4;4;
49914;PMS5003;35806;47.958;13.158;2023-04-24T04:10:22;3;3;
49914;PMS5003;35806;47.958;13.158;2023-04-24T04:12:49;4;3;
49914;PMS5003;35806;47.958;13.158;2023-04-24T04:15:17;3;3;
49914;PMS5003;35806;47.958;13.158;2023-04-24T04:17:44;4;4;
49914;PMS5003;35806;47.958;13.158;2023-04-24T04:20:12;3;3;
49914;PMS5003;35806;47.958;13.158;2023-04-24T04:22:39;5;5;
49914;PMS5003;35806;47.958;13.158;2023-04-24T04:25:07;4;4;
49914;PMS5003;35806;47.958;13.158;2023-04-24T04:27:35;7;5;
49914;PMS5003;35806;47.958;13.158;2023-04-24T04:30:02;5;5;
49914;PMS5003;35806;47.958;13.158;2023-04-24T04:32:31;7;6;
49914;PMS5003;35806;47.958;13.158;2023-04-24T04:34:58;6;6;
49914;PMS5003;35806;47.958;13.158;2023-04-24T04:37:26;7;5;
49914;PMS5003;35806;47.958;13.158;2023-04-24T04:39:53;7;7;
49914;PMS5003;35806;47.958;13.158;2023-04-24T04:42:21;7;7;
49914;PMS5003;35806;47.958;13.158;2023-04-24T04:44:49;5;5;
49914;PMS5003;35806;47.958;13.158;2023-04-24T04:47:16;12;9;
49914;PMS5003;35806;47.958;13.158;2023-04-24T04:49:44;10;10;
49914;PMS5003;35806;47.958;13.158;2023-04-24T04:52:11;8;8;
49914;PMS5003;35806;47.958;13.158;2023-04-24T04:54:39;10;10;
49914;PMS5003;35806;47.958;13.158;2023-04-24T04:57:07;9;8;
49914;PMS5003;35806;47.958;13.158;2023-04-24T04:59:34;8;8;
49914;PMS5003;35806;47.958;13.158;2023-04-24T05:02:03;9;9;
49914;PMS5003;35806;47.958;13.158;2023-04-24T05:04:30;5;5;
49914;PMS5003;35806;47.958;13.158;2023-04-24T05:06:58;4;4;
49914;PMS5003;35806;47.958;13.158;2023-04-24T05:09:25;5;5;
49914;PMS5003;35806;47.958;13.158;2023-04-24T05:11:53;5;5;
49914;PMS5003;35806;47.958;13.158;2023-04-24T05:14:26;4;4;
49914;PMS5003;35806;47.958;13.158;2023-04-24T05:16:53;6;5;
49914;PMS5003;35806;47.958;13.158;2023-04-24T05:19:21;3;3;
49914;PMS5003;35806;47.958;13.158;2023-04-24T05:21:49;4;3;
49914;PMS5003;35806;47.958;13.158;2023-04-24T05:24:16;7;5;
49914;PMS5003;35806;47.958;13.158;2023-04-24T05:26:44;5;2;
49914;PMS5003;35806;47.958;13.158;2023-04-24T05:29:11;5;5;
49914;PMS5003;35806;47.958;13.158;2023-04-24T05:31:44;3;3;
49914;PMS5003;35806;47.958;13.158;2023-04-24T05:34:11;6;6;
49914;PMS5003;35806;47.958;13.158;2023-04-24T05:36:39;3;3;
49914;PMS5003;35806;47.958;13.158;2023-04-24T05:39:07;3;3;
49914;PMS5003;35806;47.958;13.158;2023-04-24T05:41:39;5;3;
49914;PMS5003;35806;47.958;13.158;2023-04-24T05:44:06;4;4;
49914;PMS5003;35806;47.958;13.158;2023-04-24T05:46:35;4;3;
49914;PMS5003;35806;47.958;13.158;2023-04-24T05:49:02;3;3;
49914;PMS5003;35806;47.958;13.158;2023-04-24T05:51:30;4;4;
49914;PMS5003;35806;47.958;13.158;2023-04-24T05:53:57;3;3;
49914;PMS5003;35806;47.958;13.158;2023-04-24T05:56:24;3;3;
49914;PMS5003;35806;47.958;13.158;2023-04-24T05:58:52;3;3;
49914;PMS5003;35806;47.958;13.158;2023-04-24T06:01:19;4;4;
49914;PMS5003;35806;47.958;13.158;2023-04-24T06:03:46;3;3;
49914;PMS5003;35806;47.958;13.158;2023-04-24T06:06:14;2;2;
49914;PMS5003;35806;47.958;13.158;2023-04-24T06:08:41;4;3;
49914;PMS5003;35806;47.958;13.158;2023-04-24T06:11:09;2;2;
49914;PMS5003;35806;47.958;13.158;2023-04-24T06:13:37;1;1;
49914;PMS5003;35806;47.958;13.158;2023-04-24T06:16:04;2;2;
49914;PMS5003;35806;47.958;13.158;2023-04-24T06:18:32;2;2;
49914;PMS5003;35806;47.958;13.158;2023-04-24T06:20:59;5;2;
49914;PMS5003;35806;47.958;13.158;2023-04-24T06:23:27;5;2;
49914;PMS5003;35806;47.958;13.158;2023-04-24T06:25:55;4;3;
49914;PMS5003;35806;47.958;13.158;2023-04-24T06:28:22;4;4;
49914;PMS5003;35806;47.958;13.158;2023-04-24T06:30:50;3;3;
49914;PMS5003;35806;47.958;13.158;2023-04-24T06:33:18;4;3;
49914;PMS5003;35806;47.958;13.158;2023-04-24T06:35:45;3;3;
49914;PMS5003;35806;47.958;13.158;2023-04-24T06:38:13;2;2;
49914;PMS5003;35806;47.958;13.158;2023-04-24T06:40:40;3;3;
49914;PMS5003;35806;47.958;13.158;2023-04-24T06:43:08;4;3;
49914;PMS5003;35806;47.958;13.158;2023-04-24T06:45:35;3;3;
49914;PMS5003;35806;47.958;13.158;2023-04-24T06:48:03;2;1;
49914;PMS5003;35806;47.958;13.158;2023-04-24T06:50:31;1;1;
49914;PMS5003;35806;47.958;13.158;2023-04-24T06:52:58;3;3;
49914;PMS5003;35806;47.958;13.158;2023-04-24T06:55:31;4;3;
49914;PMS5003;35806;47.958;13.158;2023-04-24T06:57:59;3;2;
49914;PMS5003;35806;47.958;13.158;2023-04-24T07:00:26;1;1;
49914;PMS5003;35806;47.958;13.158;2023-04-24T07:02:54;1;1;
49914;PMS5003;35806;47.958;13.158;2023-04-24T07:05:26;1;1;
49914;PMS5003;35806;47.958;13.158;2023-04-24T07:07:54;1;1;
49914;PMS5003;35806;47.958;13.158;2023-04-24T07:10:22;1;1;
49914;PMS5003;35806;47.958;13.158;2023-04-24T07:12:49;3;3;
49914;PMS5003;35806;47.958;13.158;2023-04-24T07:15:17;2;2;
49914;PMS5003;35806;47.958;13.158;2023-04-24T07:17:44;3;3;
49914;PMS5003;35806;47.958;13.158;2023-04-24T07:20:12;1;1;
49914;PMS5003;35806;47.958;13.158;2023-04-24T07:22:40;3;2;
49914;PMS5003;35806;47.958;13.158;2023-04-24T07:25:07;3;2;
49914;PMS5003;35806;47.958;13.158;2023-04-24T07:27:35;6;6;
49914;PMS5003;35806;47.958;13.158;2023-04-24T07:30:02;5;5;
49914;PMS5003;35806;47.958;13.158;2023-04-24T07:32:31;3;3;
49914;PMS5003;35806;47.958;13.158;2023-04-24T07:34:58;5;3;
49914;PMS5003;35806;47.958;13.158;2023-04-24T07:37:26;4;4;
49914;PMS5003;35806;47.958;13.158;2023-04-24T07:39:54;4;4;
49914;PMS5003;35806;47.958;13.158;2023-04-24T07:42:22;5;4;
49914;PMS5003;35806;47.958;13.158;2023-04-24T07:44:49;3;3;
49914;PMS5003;35806;47.958;13.158;2023-04-24T07:47:16;2;2;
49914;PMS5003;35806;47.958;13.158;2023-04-24T07:49:44;2;2;
49914;PMS5003;35806;47.958;13.158;2023-04-24T07:52:11;2;2;
49914;PMS5003;35806;47.958;13.158;2023-04-24T07:54:39;3;3;
49914;PMS5003;35806;47.958;13.158;2023-04-24T07:57:07;2;2;
49914;PMS5003;35806;47.958;13.158;2023-04-24T07:59:33;3;2;
49914;PMS5003;35806;47.958;13.158;2023-04-24T08:02:01;3;3;
49914;PMS5003;35806;47.958;13.158;2023-04-24T08:04:28;1;1;
49914;PMS5003;35806;47.958;13.158;2023-04-24T08:06:56;1;1;
49914;PMS5003;35806;47.958;13.158;2023-04-24T08:09:24;3;3;
49914;PMS5003;35806;47.958;13.158;2023-04-24T08:11:51;4;2;
49914;PMS5003;35806;47.958;13.158;2023-04-24T08:14:19;2;2;
49914;PMS5003;35806;47.958;13.158;2023-04-24T08:16:46;1;1;
49914;PMS5003;35806;47.958;13.158;2023-04-24T08:19:14;2;2;
49914;PMS5003;35806;47.958;13.158;2023-04-24T08:21:41;2;2;
49914;PMS5003;35806;47.958;13.158;2023-04-24T08:24:09;2;2;
49914;PMS5003;35806;47.958;13.158;2023-04-24T08:26:36;1;1;
49914;PMS5003;35806;47.958;13.158;2023-04-24T08:29:04;1;1;
49914;PMS5003;35806;47.958;13.158;2023-04-24T08:31:32;1;1;
49914;PMS5003;35806;47.958;13.158;2023-04-24T08:33:59;2;2;
49914;PMS5003;35806;47.958;13.158;2023-04-24T08:36:27;2;2;
49914;PMS5003;35806;47.958;13.158;2023-04-24T08:38:54;1;1;
49914;PMS5003;35806;47.958;13.158;2023-04-24T08:41:22;16;13;
49914;PMS5003;35806;47.958;13.158;2023-04-24T08:43:50;5;5;
49914;PMS5003;35806;47.958;13.158;2023-04-24T08:46:18;2;1;
49914;PMS5003;35806;47.958;13.158;2023-04-24T08:48:46;0;0;
49914;PMS5003;35806;47.958;13.158;2023-04-24T08:51:15;0;0;
49914;PMS5003;35806;47.958;13.158;2023-04-24T08:53:44;1;1;
49914;PMS5003;35806;47.958;13.158;2023-04-24T08:56:13;2;2;
49914;PMS5003;35806;47.958;13.158;2023-04-24T08:58:40;2;2;
49914;PMS5003;35806;47.958;13.158;2023-04-24T09:01:09;1;1;
49914;PMS5003;35806;47.958;13.158;2023-04-24T09:03:40;2;2;
49914;PMS5003;35806;47.958;13.158;2023-04-24T09:06:08;1;1;
49914;PMS5003;35806;47.958;13.158;2023-04-24T09:08:36;1;1;
49914;PMS5003;35806;47.958;13.158;2023-04-24T09:11:06;1;1;
49914;PMS5003;35806;47.958;13.158;2023-04-24T09:13:34;2;2;
49914;PMS5003;35806;47.958;13.158;2023-04-24T09:16:02;1;1;
49914;PMS5003;35806;47.958;13.158;2023-04-24T09:18:29;3;2;
49914;PMS5003;35806;47.958;13.158;2023-04-24T09:20:57;1;1;
49914;PMS5003;35806;47.958;13.158;2023-04-24T09:23:26;0;0;
49914;PMS5003;35806;47.958;13.158;2023-04-24T09:26:00;1;1;
49914;PMS5003;35806;47.958;13.158;2023-04-24T09:28:29;1;1;
49914;PMS5003;35806;47.958;13.158;2023-04-24T09:31:06;2;2;
49914;PMS5003;35806;47.958;13.158;2023-04-24T09:33:35;1;1;
49914;PMS5003;35806;47.958;13.158;2023-04-24T09:36:02;1;1;
49914;PMS5003;35806;47.958;13.158;2023-04-24T09:38:31;3;3;
49914;PMS5003;35806;47.958;13.158;2023-04-24T09:41:00;2;2;
49914;PMS5003;35806;47.958;13.158;2023-04-24T09:43:28;3;3;
49914;PMS5003;35806;47.958;13.158;2023-04-24T09:45:57;2;2;
49914;PMS5003;35806;47.958;13.158;2023-04-24T09:48:32;1;1;
49914;PMS5003;35806;47.958;13.158;2023-04-24T09:51:02;1;1;
49914;PMS5003;35806;47.958;13.158;2023-04-24T09:53:30;4;3;
49914;PMS5003;35806;47.958;13.158;2023-04-24T09:56:01;1;1;
49914;PMS5003;35806;47.958;13.158;2023-04-24T09:58:29;1;1;
49914;PMS5003;35806;47.958;13.158;2023-04-24T10:00:57;3;3;
49914;PMS5003;35806;47.958;13.158;2023-04-24T10:03:25;2;2;
49914;PMS5003;35806;47.958;13.158;2023-04-24T10:05:58;2;2;
49914;PMS5003;35806;47.958;13.158;2023-04-24T10:08:25;2;2;
49914;PMS5003;35806;47.958;13.158;2023-04-24T10:10:52;2;2;
49914;PMS5003;35806;47.958;13.158;2023-04-24T10:13:20;3;2;
49914;PMS5003;35806;47.958;13.158;2023-04-24T10:15:48;1;1;
49914;PMS5003;35806;47.958;13.158;2023-04-24T10:18:16;2;2;
49914;PMS5003;35806;47.958;13.158;2023-04-24T10:20:44;3;3;
49914;PMS5003;35806;47.958;13.158;2023-04-24T10:23:11;1;1;
49914;PMS5003;35806;47.958;13.158;2023-04-24T10:25:39;0;0;
49914;PMS5003;35806;47.958;13.158;2023-04-24T10:28:06;0;0;
49914;PMS5003;35806;47.958;13.158;2023-04-24T10:30:35;2;2;
49914;PMS5003;35806;47.958;13.158;2023-04-24T10:33:03;0;0;
49914;PMS5003;35806;47.958;13.158;2023-04-24T10:35:31;0;0;
49914;PMS5003;35806;47.958;13.158;2023-04-24T10:38:03;2;2;
49914;PMS5003;35806;47.958;13.158;2023-04-24T10:40:34;2;1;
49914;PMS5003;35806;47.958;13.158;2023-04-24T10:43:03;2;2;
49914;PMS5003;35806;47.958;13.158;2023-04-24T10:45:30;0;0;
49914;PMS5003;35806;47.958;13.158;2023-04-24T10:47:59;0;0;
49914;PMS5003;35806;47.958;13.158;2023-04-24T10:50:29;1;1;
49914;PMS5003;35806;47.958;13.158;2023-04-24T10:53:12;1;1;
49914;PMS5003;35806;47.958;13.158;2023-04-24T10:55:41;1;1;
49914;PMS5003;35806;47.958;13.158;2023-04-24T10:58:10;2;1;
49914;PMS5003;35806;47.958;13.158;2023-04-24T11:00:38;1;1;
49914;PMS5003;35806;47.958;13.158;2023-04-24T11:03:06;1;1;
49914;PMS5003;35806;47.958;13.158;2023-04-24T11:05:50;3;2;
49914;PMS5003;35806;47.958;13.158;2023-04-24T11:08:27;3;2;
49914;PMS5003;35806;47.958;13.158;2023-04-24T11:10:58;2;2;
49914;PMS5003;35806;47.958;13.158;2023-04-24T11:14:02;1;1;
49914;PMS5003;35806;47.958;13.158;2023-04-24T11:16:45;1;1;
49914;PMS5003;35806;47.958;13.158;2023-04-24T11:19:20;1;1;
49914;PMS5003;35806;47.958;13.158;2023-04-24T11:21:54;1;1;
49914;PMS5003;35806;47.958;13.158;2023-04-24T11:24:25;2;2;
49914;PMS5003;35806;47.958;13.158;2023-04-24T11:26:55;2;2;
49914;PMS5003;35806;47.958;13.158;2023-04-24T11:29:38;2;2;
49914;PMS5003;35806;47.958;13.158;2023-04-24T11:32:15;3;3;
49914;PMS5003;35806;47.958;13.158;2023-04-24T11:34:51;1;1;
49914;PMS5003;35806;47.958;13.158;2023-04-24T11:37:19;2;2;
49914;PMS5003;35806;47.958;13.158;2023-04-24T11:39:50;2;2;
49914;PMS5003;35806;47.958;13.158;2023-04-24T11:42:18;2;2;
49914;PMS5003;35806;47.958;13.158;2023-04-24T11:44:48;2;2;
49914;PMS5003;35806;47.958;13.158;2023-04-24T11:47:16;4;3;
49914;PMS5003;35806;47.958;13.158;2023-04-24T11:49:43;4;2;
49914;PMS5003;35806;47.958;13.158;2023-04-24T11:52:11;5;4;
49914;PMS5003;35806;47.958;13.158;2023-04-24T11:54:46;3;3;
49914;PMS5003;35806;47.958;13.158;2023-04-24T11:57:15;3;3;
49914;PMS5003;35806;47.958;13.158;2023-04-24T11:59:43;4;4;
49914;PMS5003;35806;47.958;13.158;2023-04-24T12:02:19;3;3;
49914;PMS5003;35806;47.958;13.158;2023-04-24T12:04:48;4;3;
49914;PMS5003;35806;47.958;13.158;2023-04-24T12:07:15;5;4;
49914;PMS5003;35806;47.958;13.158;2023-04-24T12:09:43;4;4;
49914;PMS5003;35806;47.958;13.158;2023-04-24T12:12:17;4;4;
49914;PMS5003;35806;47.958;13.158;2023-04-24T12:14:47;4;4;
49914;PMS5003;35806;47.958;13.158;2023-04-24T12:17:15;5;5;
49914;PMS5003;35806;47.958;13.158;2023-04-24T12:19:46;7;4;
49914;PMS5003;35806;47.958;13.158;2023-04-24T12:22:14;4;4;
49914;PMS5003;35806;47.958;13.158;2023-04-24T12:24:58;3;3;
49914;PMS5003;35806;47.958;13.158;2023-04-24T12:27:28;3;3;
49914;PMS5003;35806;47.958;13.158;2023-04-24T12:29:57;3;3;
49914;PMS5003;35806;47.958;13.158;2023-04-24T12:32:25;4;2;
49914;PMS5003;35806;47.958;13.158;2023-04-24T12:34:53;2;2;
49914;PMS5003;35806;47.958;13.158;2023-04-24T12:37:22;4;3;
49914;PMS5003;35806;47.958;13.158;2023-04-24T12:39:59;3;3;
49914;PMS5003;35806;47.958;13.158;2023-04-24T12:42:29;3;2;
49914;PMS5003;35806;47.958;13.158;2023-04-24T12:44:58;2;2;
49914;PMS5003;35806;47.958;13.158;2023-04-24T12:47:26;3;3;
49914;PMS5003;35806;47.958;13.158;2023-04-24T12:49:54;3;3;
49914;PMS5003;35806;47.958;13.158;2023-04-24T12:52:22;4;2;
49914;PMS5003;35806;47.958;13.158;2023-04-24T12:54:49;2;2;
49914;PMS5003;35806;47.958;13.158;2023-04-24T12:57:18;3;3;
49914;PMS5003;35806;47.958;13.158;2023-04-24T12:59:46;4;4;
49914;PMS5003;35806;47.958;13.158;2023-04-24T13:02:13;3;3;
49914;PMS5003;35806;47.958;13.158;2023-04-24T13:04:41;3;3;
49914;PMS5003;35806;47.958;13.158;2023-04-24T13:07:09;4;2;
49914;PMS5003;35806;47.958;13.158;2023-04-24T13:09:37;1;1;
49914;PMS5003;35806;47.958;13.158;2023-04-24T13:12:05;0;0;
49914;PMS5003;35806;47.958;13.158;2023-04-24T13:14:33;2;2;
49914;PMS5003;35806;47.958;13.158;2023-04-24T13:17:07;3;2;
49914;PMS5003;35806;47.958;13.158;2023-04-24T13:19:36;4;3;
49914;PMS5003;35806;47.958;13.158;2023-04-24T13:22:05;3;3;
49914;PMS5003;35806;47.958;13.158;2023-04-24T13:24:33;3;3;
49914;PMS5003;35806;47.958;13.158;2023-04-24T13:27:00;4;4;
49914;PMS5003;35806;47.958;13.158;2023-04-24T13:29:28;3;3;
49914;PMS5003;35806;47.958;13.158;2023-04-24T13:31:56;3;3;
49914;PMS5003;35806;47.958;13.158;2023-04-24T13:34:23;3;3;
49914;PMS5003;35806;47.958;13.158;2023-04-24T13:36:53;2;2;
49914;PMS5003;35806;47.958;13.158;2023-04-24T13:39:22;4;4;
49914;PMS5003;35806;47.958;13.158;2023-04-24T13:41:50;3;3;
49914;PMS5003;35806;47.958;13.158;2023-04-24T13:44:18;5;5;
49914;PMS5003;35806;47.958;13.158;2023-04-24T13:46:47;3;3;
49914;PMS5003;35806;47.958;13.158;2023-04-24T13:49:15;5;4;
49914;PMS5003;35806;47.958;13.158;2023-04-24T13:51:42;4;4;
49914;PMS5003;35806;47.958;13.158;2023-04-24T13:54:10;3;3;
49914;PMS5003;35806;47.958;13.158;2023-04-24T13:56:37;5;2;
49914;PMS5003;35806;47.958;13.158;2023-04-24T13:59:05;3;3;
49914;PMS5003;35806;47.958;13.158;2023-04-24T14:01:33;4;4;
49914;PMS5003;35806;47.958;13.158;2023-04-24T14:04:00;2;2;
49914;PMS5003;35806;47.958;13.158;2023-04-24T14:06:28;5;5;
49914;PMS5003;35806;47.958;13.158;2023-04-24T14:08:55;8;7;
49914;PMS5003;35806;47.958;13.158;2023-04-24T14:11:23;5;5;
49914;PMS5003;35806;47.958;13.158;2023-04-24T14:13:51;6;5;
49914;PMS5003;35806;47.958;13.158;2023-04-24T14:16:18;8;6;
49914;PMS5003;35806;47.958;13.158;2023-04-24T14:18:45;5;5;
49914;PMS5003;35806;47.958;13.158;2023-04-24T14:21:13;6;5;
49914;PMS5003;35806;47.958;13.158;2023-04-24T14:23:40;6;5;
49914;PMS5003;35806;47.958;13.158;2023-04-24T14:26:08;29;21;
49914;PMS5003;35806;47.958;13.158;2023-04-24T14:28:35;12;10;
49914;PMS5003;35806;47.958;13.158;2023-04-24T14:31:03;8;7;
49914;PMS5003;35806;47.958;13.158;2023-04-24T14:33:30;16;14;
49914;PMS5003;35806;47.958;13.158;2023-04-24T14:35:57;6;6;
49914;PMS5003;35806;47.958;13.158;2023-04-24T14:38:24;3;3;
49914;PMS5003;35806;47.958;13.158;2023-04-24T14:40:51;2;2;
49914;PMS5003;35806;47.958;13.158;2023-04-24T14:43:19;3;3;
49914;PMS5003;35806;47.958;13.158;2023-04-24T14:45:46;3;3;
49914;PMS5003;35806;47.958;13.158;2023-04-24T14:48:14;10;10;
49914;PMS5003;35806;47.958;13.158;2023-04-24T14:50:42;4;4;
49914;PMS5003;35806;47.958;13.158;2023-04-24T14:53:09;4;4;
49914;PMS5003;35806;47.958;13.158;2023-04-24T14:55:37;3;3;
49914;PMS5003;35806;47.958;13.158;2023-04-24T14:58:05;5;5;
49914;PMS5003;35806;47.958;13.158;2023-04-24T15:00:32;6;4;
49914;PMS5003;35806;47.958;13.158;2023-04-24T15:03:00;8;8;
49914;PMS5003;35806;47.958;13.158;2023-04-24T15:05:28;5;5;
49914;PMS5003;35806;47.958;13.158;2023-04-24T15:07:55;4;4;
49914;PMS5003;35806;47.958;13.158;2023-04-24T15:10:23;4;4;
49914;PMS5003;35806;47.958;13.158;2023-04-24T15:12:50;6;6;
49914;PMS5003;35806;47.958;13.158;2023-04-24T15:15:18;7;5;
49914;PMS5003;35806;47.958;13.158;2023-04-24T15:17:46;6;6;
49914;PMS5003;35806;47.958;13.158;2023-04-24T15:20:13;20;19;
49914;PMS5003;35806;47.958;13.158;2023-04-24T15:22:40;6;5;
49914;PMS5003;35806;47.958;13.158;2023-04-24T15:25:08;4;4;
49914;PMS5003;35806;47.958;13.158;2023-04-24T15:27:40;5;5;
49914;PMS5003;35806;47.958;13.158;2023-04-24T15:30:08;7;7;
49914;PMS5003;35806;47.958;13.158;2023-04-24T15:32:42;5;5;
49914;PMS5003;35806;47.958;13.158;2023-04-24T15:35:09;3;3;
49914;PMS5003;35806;47.958;13.158;2023-04-24T15:37:38;5;5;
49914;PMS5003;35806;47.958;13.158;2023-04-24T15:40:06;8;5;
49914;PMS5003;35806;47.958;13.158;2023-04-24T15:42:34;5;5;
49914;PMS5003;35806;47.958;13.158;2023-04-24T15:45:01;6;6;
49914;PMS5003;35806;47.958;13.158;2023-04-24T15:47:29;6;6;
49914;PMS5003;35806;47.958;13.158;2023-04-24T15:49:56;6;6;
49914;PMS5003;35806;47.958;13.158;2023-04-24T15:52:24;5;4;
49914;PMS5003;35806;47.958;13.158;2023-04-24T15:54:52;5;5;
49914;PMS5003;35806;47.958;13.158;2023-04-24T15:57:20;4;4;
49914;PMS5003;35806;47.958;13.158;2023-04-24T15:59:47;4;4;
49914;PMS5003;35806;47.958;13.158;2023-04-24T16:02:15;4;4;
49914;PMS5003;35806;47.958;13.158;2023-04-24T16:04:43;6;6;
49914;PMS5003;35806;47.958;13.158;2023-04-24T16:07:11;4;4;
49914;PMS5003;35806;47.958;13.158;2023-04-24T16:09:39;10;10;
49914;PMS5003;35806;47.958;13.158;2023-04-24T16:12:08;7;7;
49914;PMS5003;35806;47.958;13.158;2023-04-24T16:14:35;6;6;
49914;PMS5003;35806;47.958;13.158;2023-04-24T16:17:03;8;8;
49914;PMS5003;35806;47.958;13.158;2023-04-24T16:19:30;12;12;
49914;PMS5003;35806;47.958;13.158;2023-04-24T16:21:58;23;23;
49914;PMS5003;35806;47.958;13.158;2023-04-24T16:24:27;16;14;
49914;PMS5003;35806;47.958;13.158;2023-04-24T16:26:55;9;9;
49914;PMS5003;35806;47.958;13.158;2023-04-24T16:29:22;10;10;
49914;PMS5003;35806;47.958;13.158;2023-04-24T16:31:50;7;7;
49914;PMS5003;35806;47.958;13.158;2023-04-24T16:34:17;7;7;
49914;PMS5003;35806;47.958;13.158;2023-04-24T16:36:45;7;7;
49914;PMS5003;35806;47.958;13.158;2023-04-24T16:39:13;7;7;
49914;PMS5003;35806;47.958;13.158;2023-04-24T16:41:40;6;6;
49914;PMS5003;35806;47.958;13.158;2023-04-24T16:44:07;10;10;
49914;PMS5003;35806;47.958;13.158;2023-04-24T16:46:35;9;9;
49914;PMS5003;35806;47.958;13.158;2023-04-24T16:49:02;11;11;
49914;PMS5003;35806;47.958;13.158;2023-04-24T16:51:30;6;6;
49914;PMS5003;35806;47.958;13.158;2023-04-24T16:53:57;10;9;